Time;durP1;ratioP1;P1;durP2;ratioP2;P2;SDS_P1;SDS_P2;PMS_P1;PMS_P2;Temp;Humidity;BMP_temperature;BMP_pressure;BME280_temperature;BME280_humidity;BME280_pressure;Samples;Min_cycle;Max_cycle;Signal;HPM_P1;HPM_P2
2022/07/19 00:00:36;;;;;;;8.05;3.35;;;22.30;1.00;;;;;;7349533;19;20018;-71
2022/07/19 00:03:06;;;;;;;4.88;3.10;;;22.30;1.00;;;;;;7345696;19;20022;-71
2022/07/19 00:05:36;;;;;;;4.15;2.78;;;22.20;1.00;;;;;;7380549;19;20589;-71
2022/07/19 00:08:07;;;;;;;4.90;3.10;;;22.20;1.00;;;;;;7357728;19;20082;-70
2022/07/19 00:10:37;;;;;;;3.47;2.97;;;22.20;1.00;;;;;;7348584;19;20010;-71
2022/07/19 00:13:10;;;;;;;3.55;3.00;;;22.20;1.00;;;;;;7345533;19;20473;-71
2022/07/19 00:15:40;;;;;;;3.55;3.15;;;22.20;1.00;;;;;;7358442;19;20774;-71
2022/07/19 00:18:10;;;;;;;6.45;3.20;;;22.10;1.00;;;;;;7356442;19;21001;-71
2022/07/19 00:20:40;;;;;;;6.38;3.90;;;22.10;1.00;;;;;;7372727;19;20098;-70
2022/07/19 00:23:10;;;;;;;6.60;3.88;;;22.30;1.00;;;;;;7347595;19;21768;-70
2022/07/19 00:25:40;;;;;;;5.75;3.90;;;22.30;1.00;;;;;;7359275;19;20035;-70
2022/07/19 00:28:12;;;;;;;6.85;3.97;;;22.30;1.00;;;;;;7357763;19;20486;-70
2022/07/19 00:30:42;;;;;;;5.75;4.13;;;22.30;1.00;;;;;;7352599;19;20136;-70
2022/07/19 00:33:12;;;;;;;5.25;3.78;;;22.20;1.00;;;;;;7345923;19;20486;-71
2022/07/19 00:35:42;;;;;;;4.70;4.03;;;22.10;1.00;;;;;;7381243;19;20026;-71
2022/07/19 00:38:17;;;;;;;6.43;4.15;;;22.00;1.00;;;;;;7354583;19;20010;-70
2022/07/19 00:40:47;;;;;;;4.82;3.53;;;22.00;1.00;;;;;;7349138;19;20027;-69
2022/07/19 00:43:19;;;;;;;6.20;3.85;;;22.00;1.00;;;;;;7344739;19;20011;-71
2022/07/19 00:45:49;;;;;;;5.45;3.03;;;22.00;1.00;;;;;;7365122;19;20483;-70
2022/07/19 00:48:19;;;;;;;11.60;3.85;;;22.00;1.00;;;;;;7360936;19;20085;-70
2022/07/19 00:50:49;;;;;;;8.15;4.10;;;21.80;1.00;;;;;;7375099;19;20018;-70
2022/07/19 00:53:21;;;;;;;6.65;3.67;;;21.80;1.00;;;;;;7350758;19;20057;-70
2022/07/19 00:55:51;;;;;;;4.57;3.83;;;21.80;1.00;;;;;;7361494;19;20015;-70
2022/07/19 00:58:24;;;;;;;4.70;3.70;;;21.70;1.00;;;;;;7362521;19;20018;-71
2022/07/19 01:00:54;;;;;;;7.93;4.32;;;21.70;1.00;;;;;;7352174;19;20086;-71
2022/07/19 01:03:24;;;;;;;5.28;3.78;;;21.60;1.00;;;;;;7351976;19;20016;-72
2022/07/19 01:05:54;;;;;;;6.50;4.38;;;21.60;1.00;;;;;;7366413;19;20011;-71
2022/07/19 01:08:24;;;;;;;4.85;3.78;;;21.50;1.00;;;;;;7384925;19;20533;-70
2022/07/19 01:10:54;;;;;;;12.93;4.20;;;21.50;1.00;;;;;;7352482;19;20031;-70
2022/07/19 01:13:27;;;;;;;6.00;4.13;;;21.50;1.00;;;;;;7354773;19;20015;-70
2022/07/19 01:15:57;;;;;;;10.10;4.22;;;21.50;1.00;;;;;;7364184;19;20038;-71
2022/07/19 01:18:27;;;;;;;10.40;4.50;;;21.50;1.00;;;;;;7363911;19;20006;-71
2022/07/19 01:20:57;;;;;;;6.43;3.70;;;21.40;1.00;;;;;;7353324;19;21304;-71
2022/07/19 01:23:30;;;;;;;5.60;3.80;;;21.40;1.00;;;;;;7376531;19;20014;-70
2022/07/19 01:26:00;;;;;;;4.75;4.25;;;21.30;1.00;;;;;;7363463;19;20667;-72
2022/07/19 01:28:29;;;;;;;7.97;4.32;;;21.20;1.00;;;;;;7364534;19;20133;-71
2022/07/19 01:30:59;;;;;;;9.35;4.50;;;21.10;1.00;;;;;;7349982;19;20211;-71
2022/07/19 01:33:29;;;;;;;6.15;4.15;;;21.10;1.00;;;;;;7356393;19;20070;-72
2022/07/19 01:36:00;;;;;;;4.63;3.60;;;21.10;1.00;;;;;;7364289;19;20033;-72
2022/07/19 01:38:32;;;;;;;5.65;4.53;;;21.10;1.00;;;;;;7382821;19;20011;-72
2022/07/19 01:41:02;;;;;;;5.55;4.13;;;21.10;1.00;;;;;;7350462;19;20070;-71
2022/07/19 01:43:32;;;;;;;8.20;4.07;;;21.00;1.00;;;;;;7356460;19;20014;-72
2022/07/19 01:46:03;;;;;;;6.03;3.95;;;21.00;1.00;;;;;;7361559;19;20086;-71
2022/07/19 01:48:33;;;;;;;5.72;3.90;;;20.90;1.00;;;;;;7364749;19;20490;-71
2022/07/19 01:51:03;;;;;;;5.57;4.00;;;20.90;1.00;;;;;;7349188;19;20021;-71
2022/07/19 01:53:36;;;;;;;8.55;4.45;;;20.90;1.00;;;;;;7372136;19;20018;-71
2022/07/19 01:56:07;;;;;;;6.07;4.05;;;20.90;1.00;;;;;;7358973;19;20074;-70
2022/07/19 01:58:37;;;;;;;9.82;3.97;;;20.80;1.00;;;;;;7360341;19;20045;-70
2022/07/19 02:01:07;;;;;;;9.15;4.10;;;20.80;1.00;;;;;;7344996;19;20782;-71
2022/07/19 02:03:37;;;;;;;6.68;3.95;;;20.80;1.00;;;;;;7357000;19;20466;-71
2022/07/19 02:06:07;;;;;;;6.28;4.10;;;20.80;1.00;;;;;;7359899;19;20081;-71
2022/07/19 02:08:40;;;;;;;8.63;4.22;;;20.60;1.00;;;;;;7381615;19;20046;-71
2022/07/19 02:13:54;;;;;;;8.52;4.10;;;20.70;1.00;;;;;;7364060;19;20014;-70
2022/07/19 02:16:25;;;;;;;9.65;4.20;;;20.70;1.00;;;;;;7361567;19;20010;-72
2022/07/19 02:18:55;;;;;;;8.40;4.05;;;20.70;1.00;;;;;;7362551;19;20038;-71
2022/07/19 02:21:25;;;;;;;7.80;4.30;;;20.60;1.00;;;;;;7338523;19;20014;-70
2022/07/19 02:23:57;;;;;;;7.78;4.15;;;20.50;1.00;;;;;;7363495;19;20407;-70
2022/07/19 02:26:27;;;;;;;7.78;4.25;;;20.50;1.00;;;;;;7382010;19;20422;-70
2022/07/19 02:29:00;;;;;;;6.82;4.63;;;20.50;1.00;;;;;;7360213;19;20006;-69
2022/07/19 02:31:30;;;;;;;7.43;4.15;;;20.50;1.00;;;;;;7335641;19;20031;-70
2022/07/19 02:34:01;;;;;;;8.35;4.68;;;20.50;1.00;;;;;;7363358;19;20014;-71
2022/07/19 02:36:31;;;;;;;6.57;4.32;;;20.40;1.00;;;;;;7361122;19;20018;-70
2022/07/19 02:39:03;;;;;;;5.90;4.13;;;20.40;1.00;;;;;;7358411;19;20022;-70
2022/07/19 02:41:34;;;;;;;5.32;4.38;;;20.30;1.00;;;;;;7359052;19;20025;-71
2022/07/19 02:44:04;;;;;;;5.40;4.45;;;20.20;1.00;;;;;;7362939;19;20018;-71
2022/07/19 02:46:39;;;;;;;7.22;4.95;;;20.20;1.00;;;;;;7360214;19;20011;-71
2022/07/19 02:49:09;;;;;;;9.07;5.10;;;20.20;1.00;;;;;;7361156;19;20101;-70
2022/07/19 02:51:38;;;;;;;8.10;4.90;;;20.20;1.00;;;;;;7335558;19;20023;-70
2022/07/19 02:54:11;;;;;;;8.18;5.28;;;20.10;1.00;;;;;;7363014;19;20048;-71
2022/07/19 02:56:41;;;;;;;8.85;5.47;;;20.10;1.00;;;;;;7384046;19;20384;-71
2022/07/19 02:59:11;;;;;;;11.13;4.90;;;20.10;1.00;;;;;;7357924;19;20014;-71
2022/07/19 03:01:40;;;;;;;14.18;6.00;;;20.10;1.00;;;;;;7336097;19;20024;-71
2022/07/19 03:04:10;;;;;;;9.05;5.68;;;20.10;1.00;;;;;;7363021;19;20162;-70
2022/07/19 03:06:40;;;;;;;9.48;5.75;;;20.10;1.00;;;;;;7359478;19;20018;-71
2022/07/19 03:09:13;;;;;;;8.35;5.25;;;20.00;1.00;;;;;;7359691;19;20014;-71
2022/07/19 03:11:43;;;;;;;6.50;5.18;;;20.00;1.00;;;;;;7357460;19;20034;-71
2022/07/19 03:14:13;;;;;;;10.68;5.38;;;20.00;1.00;;;;;;7360978;19;20608;-70
2022/07/19 03:16:43;;;;;;;8.80;5.75;;;20.00;1.00;;;;;;7361257;19;20373;-70
2022/07/19 03:19:13;;;;;;;7.72;5.35;;;19.90;1.00;;;;;;7358071;19;20006;-73
2022/07/19 03:21:45;;;;;;;9.68;5.45;;;19.90;1.00;;;;;;7334590;19;20131;-72
2022/07/19 03:24:18;;;;;;;9.23;5.85;;;19.90;1.00;;;;;;7362415;19;20017;-73
2022/07/19 03:26:48;;;;;;;8.25;5.53;;;19.90;1.00;;;;;;7381714;19;20015;-70
2022/07/19 03:29:19;;;;;;;9.93;5.53;;;19.80;1.00;;;;;;7358973;19;20696;-70
2022/07/19 03:31:56;;;;;;;11.32;5.95;;;19.80;1.00;;;;;;7337327;19;20009;-70
2022/07/19 03:34:33;;;;;;;;;;;19.80;1.00;;;;;;7362214;19;20488;-72
2022/07/19 03:37:03;;;;;;;8.55;5.47;;;19.70;1.00;;;;;;7360045;19;20307;-71
2022/07/19 03:39:36;;;;;;;11.70;5.93;;;19.70;1.00;;;;;;7358202;19;20007;-70
2022/07/19 03:42:06;;;;;;;8.95;5.53;;;19.70;1.00;;;;;;7335665;19;20561;-71
2022/07/19 03:44:48;;;;;;;7.13;5.13;;;19.60;1.00;;;;;;7383079;19;20073;-72
2022/07/19 03:47:20;;;;;;;10.68;5.35;;;19.60;1.00;;;;;;7358102;19;20082;-71
2022/07/19 03:49:50;;;;;;;10.85;5.70;;;19.60;1.00;;;;;;7350073;19;20941;-70
2022/07/19 03:52:20;;;;;;;8.55;5.25;;;19.70;1.00;;;;;;7344088;19;20010;-70
2022/07/19 03:54:52;;;;;;;8.10;5.10;;;19.80;1.00;;;;;;7361869;19;20273;-70
2022/07/19 03:57:22;;;;;;;14.25;5.70;;;20.10;1.00;;;;;;7359027;19;20030;-71
2022/07/19 03:59:52;;;;;;;7.53;4.75;;;20.60;1.00;;;;;;7369858;19;20018;-69
2022/07/19 04:02:22;;;;;;;14.88;5.70;;;21.10;1.00;;;;;;7344351;19;20013;-70
2022/07/19 04:04:52;;;;;;;10.55;5.40;;;21.30;1.00;;;;;;7360176;19;20086;-70
2022/07/19 04:07:22;;;;;;;9.35;5.22;;;21.60;1.00;;;;;;7359825;19;20010;-70
2022/07/19 04:09:54;;;;;;;8.98;5.32;;;22.20;1.00;;;;;;7348669;19;20020;-70
2022/07/19 04:12:24;;;;;;;8.93;4.55;;;22.10;1.00;;;;;;7343518;19;20457;-69
2022/07/19 04:14:54;;;;;;;6.90;4.72;;;22.30;1.00;;;;;;7364543;19;20052;-70
2022/07/19 04:17:24;;;;;;;7.68;4.82;;;23.00;1.00;;;;;;7380619;19;20085;-70
2022/07/19 04:19:54;;;;;;;7.90;4.68;;;23.30;1.00;;;;;;7348880;19;20018;-70
2022/07/19 04:22:24;;;;;;;9.48;5.00;;;23.80;1.00;;;;;;7350692;19;20021;-70
2022/07/19 04:24:56;;;;;;;7.53;5.10;;;23.90;1.00;;;;;;7367411;19;20016;-70
2022/07/19 04:27:26;;;;;;;9.98;4.43;;;23.70;1.00;;;;;;7365149;19;20490;-70
2022/07/19 04:29:56;;;;;;;9.02;4.30;;;24.40;1.00;;;;;;7354387;19;20015;-71
2022/07/19 04:32:27;;;;;;;11.70;4.63;;;24.70;1.00;;;;;;7372734;19;20014;-70
2022/07/19 04:34:57;;;;;;;6.68;4.47;;;25.00;1.00;;;;;;7367870;19;20134;-70
2022/07/19 04:37:27;;;;;;;7.18;3.95;;;25.00;1.00;;;;;;7364538;19;20010;-70
2022/07/19 04:40:00;;;;;;;9.38;4.95;;;25.50;1.00;;;;;;7353782;19;20016;-70
2022/07/19 04:42:30;;;;;;;11.85;4.47;;;26.20;1.00;;;;;;7349345;19;20070;-71
2022/07/19 04:45:00;;;;;;;8.18;4.40;;;26.00;1.00;;;;;;7365572;19;20017;-71
2022/07/19 04:47:30;;;;;;;5.85;4.25;;;26.30;1.00;;;;;;7385861;19;20086;-70
2022/07/19 04:50:00;;;;;;;11.15;4.38;;;26.00;1.00;;;;;;7353487;19;20021;-70
2022/07/19 04:52:29;;;;;;;6.85;4.22;;;26.80;1.00;;;;;;7348605;19;20103;-70
2022/07/19 04:55:02;;;;;;;6.88;4.38;;;27.00;1.00;;;;;;7366606;19;20074;-71
2022/07/19 04:57:32;;;;;;;9.32;5.18;;;27.20;1.00;;;;;;7364696;19;20017;-71
2022/07/19 05:00:02;;;;;;;5.60;4.03;;;27.90;1.00;;;;;;7352697;19;20029;-72
2022/07/19 05:02:32;;;;;;;7.63;4.20;;;28.00;1.00;;;;;;7369518;19;20013;-71
2022/07/19 05:05:02;;;;;;;10.07;4.30;;;27.70;1.00;;;;;;7365112;19;20401;-71
2022/07/19 05:07:31;;;;;;;6.97;3.97;;;28.10;1.00;;;;;;7364822;19;20081;-69
2022/07/19 05:10:05;;;;;;;8.85;4.32;;;27.50;1.00;;;;;;7352622;19;20015;-71
2022/07/19 05:12:35;;;;;;;6.95;4.22;;;29.20;1.00;;;;;;7348780;19;20026;-73
2022/07/19 05:15:06;;;;;;;10.82;4.28;;;29.00;1.00;;;;;;7363418;19;20640;-71
2022/07/19 05:17:44;;;;;;;8.57;4.55;;;27.90;1.00;;;;;;7384888;19;20024;-71
2022/07/19 05:20:16;;;;;;;12.95;4.53;;;27.30;1.00;;;;;;7350871;19;20006;-71
2022/07/19 05:22:46;;;;;;;9.88;4.20;;;27.60;1.00;;;;;;7347449;19;20007;-70
2022/07/19 05:25:20;;;;;;;5.68;3.83;;;28.40;1.00;;;;;;7365033;19;20018;-70
2022/07/19 05:27:50;;;;;;;7.85;4.22;;;29.30;1.00;;;;;;7362947;19;20010;-70
2022/07/19 05:30:20;;;;;;;7.22;3.83;;;28.60;1.00;;;;;;7352357;19;20017;-71
2022/07/19 05:32:49;;;;;;;7.03;3.63;;;29.20;1.00;;;;;;7368866;19;20546;-70
2022/07/19 05:35:19;;;;;;;6.47;3.70;;;28.60;1.00;;;;;;7363979;19;20077;-70
2022/07/19 05:37:49;;;;;;;7.05;3.60;;;29.20;1.00;;;;;;7363142;19;20011;-70
2022/07/19 05:40:22;;;;;;;4.97;3.20;;;29.50;1.00;;;;;;7350882;19;20018;-71
2022/07/19 05:42:52;;;;;;;7.25;3.78;;;29.20;1.00;;;;;;7344209;19;20047;-70
2022/07/19 05:45:22;;;;;;;7.43;3.97;;;28.70;1.00;;;;;;7364702;19;20478;-70
2022/07/19 05:47:52;;;;;;;8.07;3.80;;;28.70;1.00;;;;;;7385574;19;20014;-71
2022/07/19 05:50:22;;;;;;;6.45;3.40;;;29.20;1.00;;;;;;7350410;19;20014;-71
2022/07/19 05:52:52;;;;;;;5.90;3.70;;;28.70;1.00;;;;;;7346940;19;20094;-71
2022/07/19 05:55:24;;;;;;;6.28;3.40;;;29.10;1.00;;;;;;7364026;19;20077;-70
2022/07/19 05:57:54;;;;;;;5.28;3.17;;;28.60;1.00;;;;;;7363310;19;20304;-71
2022/07/19 06:00:24;;;;;;;5.50;3.17;;;29.40;1.00;;;;;;7353083;19;20011;-70
2022/07/19 06:02:54;;;;;;;4.50;4.00;;;28.90;1.00;;;;;;7350952;19;20033;-71
2022/07/19 06:05:24;;;;;;;6.50;3.25;;;28.60;1.00;;;;;;7383968;19;20093;-69
2022/07/19 06:07:54;;;;;;;6.13;3.55;;;26.80;1.00;;;;;;7363262;19;20014;-70
2022/07/19 06:10:26;;;;;;;4.03;2.60;;;25.90;1.00;;;;;;7352885;19;20031;-70
2022/07/19 06:12:56;;;;;;;4.53;2.90;;;25.60;1.00;;;;;;7348487;19;20034;-70
2022/07/19 06:15:26;;;;;;;7.05;3.20;;;27.20;1.00;;;;;;7363139;19;20089;-71
2022/07/19 06:17:56;;;;;;;5.15;3.13;;;28.30;1.00;;;;;;7363201;19;20007;-71
2022/07/19 06:20:34;;;;;;;5.30;3.00;;;28.20;1.00;;;;;;7371980;19;20018;-70
2022/07/19 06:23:04;;;;;;;4.80;2.72;;;28.60;1.00;;;;;;7348894;19;20021;-71
2022/07/19 06:25:36;;;;;;;6.50;2.60;;;28.60;1.00;;;;;;7360725;19;20078;-70
2022/07/19 06:28:07;;;;;;;8.93;3.20;;;28.50;1.00;;;;;;7360216;19;20093;-71
2022/07/19 06:30:36;;;;;;;6.07;3.05;;;29.00;1.00;;;;;;7351422;19;20537;-71
2022/07/19 06:33:06;;;;;;;4.57;2.67;;;29.30;1.00;;;;;;7347720;19;20043;-71
2022/07/19 06:35:36;;;;;;;3.78;2.67;;;29.60;1.00;;;;;;7381709;19;20112;-71
2022/07/19 06:38:06;;;;;;;3.08;2.42;;;29.30;1.00;;;;;;7361913;19;20465;-70
2022/07/19 06:40:39;;;;;;;4.45;2.60;;;29.70;1.00;;;;;;7348349;19;20086;-70
2022/07/19 06:43:09;;;;;;;6.57;2.58;;;30.00;1.00;;;;;;7345408;19;20010;-70
2022/07/19 06:45:39;;;;;;;4.57;2.65;;;29.10;1.00;;;;;;7362109;19;20014;-72
2022/07/19 06:48:09;;;;;;;5.63;2.28;;;29.60;1.00;;;;;;7361747;19;20012;-70
2022/07/19 06:50:40;;;;;;;5.82;2.60;;;28.10;1.00;;;;;;7370551;19;20027;-71
2022/07/19 06:53:11;;;;;;;7.72;2.78;;;27.10;1.00;;;;;;7345445;19;20022;-70
2022/07/19 06:55:44;;;;;;;4.85;2.42;;;26.80;1.00;;;;;;7360421;19;20034;-71
2022/07/19 06:58:14;;;;;;;3.38;2.58;;;26.80;1.00;;;;;;7360215;19;20016;-70
2022/07/19 07:00:45;;;;;;;3.20;2.33;;;27.20;1.00;;;;;;7349360;19;20010;-71
2022/07/19 07:03:15;;;;;;;4.03;2.70;;;26.50;1.00;;;;;;7345922;19;20567;-71
2022/07/19 07:05:45;;;;;;;3.85;1.85;;;27.00;1.00;;;;;;7379736;19;20031;-70
2022/07/19 07:08:15;;;;;;;3.67;2.22;;;26.90;1.00;;;;;;7358101;19;20011;-71
2022/07/19 07:10:47;;;;;;;3.40;1.90;;;27.20;1.00;;;;;;7348858;19;20085;-71
2022/07/19 07:13:17;;;;;;;5.13;2.22;;;27.20;1.00;;;;;;7348005;19;20089;-71
2022/07/19 07:15:47;;;;;;;3.13;2.10;;;27.10;1.00;;;;;;7360697;19;20021;-71
2022/07/19 07:18:17;;;;;;;3.80;2.40;;;27.00;1.00;;;;;;7358644;19;20066;-70
2022/07/19 07:20:47;;;;;;;4.20;2.60;;;27.50;1.00;;;;;;7371822;19;20028;-71
2022/07/19 07:23:18;;;;;;;8.73;2.42;;;27.70;1.00;;;;;;7345672;19;20010;-71
2022/07/19 07:25:53;;;;;;;3.25;2.30;;;27.50;1.00;;;;;;7359361;19;20018;-70
2022/07/19 07:28:23;;;;;;;3.50;2.38;;;27.70;1.00;;;;;;7359258;19;20047;-70
2022/07/19 07:30:55;;;;;;;3.80;2.05;;;27.50;1.00;;;;;;7347604;19;20443;-71
2022/07/19 07:33:25;;;;;;;3.38;2.20;;;27.40;1.00;;;;;;7347225;19;20488;-70
2022/07/19 07:35:55;;;;;;;6.97;2.30;;;27.60;1.00;;;;;;7359369;19;20028;-72
2022/07/19 07:38:25;;;;;;;7.25;4.25;;;27.50;1.00;;;;;;7381704;19;20013;-70
2022/07/19 07:40:58;;;;;;;5.18;2.30;;;27.60;1.00;;;;;;7348876;19;20074;-70
2022/07/19 07:43:48;;;;;;;5.03;2.20;;;27.70;1.00;;;;;;7352079;19;20013;-70
2022/07/19 07:46:18;;;;;;;6.00;2.00;;;28.40;1.00;;;;;;7357310;19;20416;-70
2022/07/19 07:48:48;;;;;;;3.28;2.20;;;28.60;1.00;;;;;;7358636;19;20010;-71
2022/07/19 07:51:25;;;;;;;3.42;2.35;;;28.70;1.00;;;;;;7341689;19;20434;-70
2022/07/19 07:54:14;;;;;;;4.53;2.33;;;28.30;1.00;;;;;;7358941;19;20033;-71
2022/07/19 07:56:47;;;;;;;4.78;2.20;;;28.10;1.00;;;;;;7385441;19;20075;-73
2022/07/19 07:59:17;;;;;;;3.45;2.22;;;28.00;1.00;;;;;;7363526;19;20036;-71
2022/07/19 08:01:47;;;;;;;8.77;2.08;;;28.00;1.00;;;;;;7347065;19;20011;-71
2022/07/19 08:04:26;;;;;;;2.45;1.92;;;28.20;1.00;;;;;;7366016;19;20084;-71
2022/07/19 08:06:57;;;;;;;4.05;2.20;;;28.40;1.00;;;;;;7364990;19;20093;-71
2022/07/19 08:09:26;;;;;;;4.95;2.10;;;28.70;1.00;;;;;;7366991;19;20010;-72
2022/07/19 08:11:59;;;;;;;5.60;2.10;;;28.60;1.00;;;;;;7348282;19;20511;-73
2022/07/19 08:14:29;;;;;;;4.68;2.13;;;28.70;1.00;;;;;;7384937;19;20026;-71
2022/07/19 08:16:59;;;;;;;4.78;2.03;;;29.00;1.00;;;;;;7363978;19;20436;-71
2022/07/19 08:19:29;;;;;;;3.35;1.90;;;29.10;1.00;;;;;;7364669;19;20019;-73
2022/07/19 08:21:59;;;;;;;5.93;2.10;;;29.30;1.00;;;;;;7344694;19;20025;-71
2022/07/19 08:24:29;;;;;;;4.93;2.60;;;29.20;1.00;;;;;;7364568;19;20081;-73
2022/07/19 08:27:01;;;;;;;3.60;2.17;;;29.30;1.00;;;;;;7363293;19;20060;-72
2022/07/19 08:29:31;;;;;;;4.68;2.33;;;29.40;1.00;;;;;;7386132;19;20015;-72
2022/07/19 08:32:01;;;;;;;5.32;2.03;;;29.50;1.00;;;;;;7344251;19;20015;-71
2022/07/19 08:34:31;;;;;;;3.58;1.65;;;29.70;1.00;;;;;;7363871;19;20078;-71
2022/07/19 08:37:03;;;;;;;2.95;1.80;;;29.80;1.00;;;;;;7365656;19;20052;-72
2022/07/19 08:39:33;;;;;;;3.40;1.70;;;29.90;1.00;;;;;;7363157;19;20094;-72
2022/07/19 08:42:05;;;;;;;3.58;1.88;;;30.00;1.00;;;;;;7343261;19;20014;-72
2022/07/19 08:44:38;;;;;;;2.88;1.50;;;30.10;1.00;;;;;;7383392;19;20098;-73
2022/07/19 08:47:09;;;;;;;1.73;1.50;;;29.70;1.00;;;;;;7363343;19;20011;-72
2022/07/19 08:49:39;;;;;;;8.20;2.00;;;29.70;1.00;;;;;;7362577;19;20019;-73
2022/07/19 08:52:09;;;;;;;12.25;2.25;;;29.80;1.00;;;;;;7343917;19;20021;-71
2022/07/19 08:54:41;;;;;;;5.45;1.75;;;30.10;1.00;;;;;;7362579;19;20050;-71
2022/07/19 08:59:56;;;;;;;3.03;1.85;;;30.10;1.00;;;;;;7358265;19;20015;-72
2022/07/19 09:02:26;;;;;;;3.90;1.83;;;30.20;1.00;;;;;;7379862;19;20021;-71
2022/07/19 09:05:05;;;;;;;5.40;1.80;;;30.50;1.00;;;;;;7364080;19;20032;-72
2022/07/19 09:07:35;;;;;;;6.57;2.15;;;30.40;1.00;;;;;;7365945;19;20066;-72
2022/07/19 09:10:18;;;;;;;10.50;2.60;;;30.70;1.00;;;;;;7357616;19;20015;-71
2022/07/19 09:13:05;;;;;;;4.87;1.57;;;31.10;1.00;;;;;;7356612;19;20098;-72
2022/07/19 09:15:43;;;;;;;26.30;5.13;;;30.70;1.00;;;;;;7366422;19;20085;-73
2022/07/19 09:18:18;;;;;;;6.55;2.20;;;30.60;1.00;;;;;;7363076;19;20087;-72
2022/07/19 09:20:49;;;;;;;17.85;3.45;;;30.70;1.00;;;;;;7380607;19;20027;-70
2022/07/19 09:23:19;;;;;;;8.88;2.28;;;31.00;1.00;;;;;;7355120;19;20074;-72
2022/07/19 09:25:50;;;;;;;6.70;2.20;;;30.80;1.00;;;;;;7365285;19;20035;-73
2022/07/19 09:28:24;;;;;;;9.90;2.20;;;30.90;1.00;;;;;;7364333;19;20027;-72
2022/07/19 09:30:56;;;;;;;5.35;1.90;;;30.90;1.00;;;;;;7357826;19;20017;-71
2022/07/19 09:33:28;;;;;;;3.85;1.77;;;30.80;1.00;;;;;;7357275;19;20063;-70
2022/07/19 09:35:59;;;;;;;4.30;1.95;;;31.00;1.00;;;;;;7364861;19;20070;-70
2022/07/19 09:38:31;;;;;;;5.70;1.73;;;30.90;1.00;;;;;;7385943;19;20022;-70
2022/07/19 09:41:12;;;;;;;3.95;1.80;;;31.10;1.00;;;;;;7356659;19;20090;-71
2022/07/19 09:43:55;;;;;;;5.55;1.90;;;31.50;1.00;;;;;;7358220;19;20022;-71
2022/07/19 09:46:34;;;;;;;8.27;2.00;;;31.60;1.00;;;;;;7363211;19;20018;-70
2022/07/19 09:49:09;;;;;;;3.30;2.03;;;31.30;1.00;;;;;;7361862;19;20007;-71
2022/07/19 09:51:41;;;;;;;2.97;1.75;;;31.40;1.00;;;;;;7351312;19;20027;-71
2022/07/19 09:54:12;;;;;;;6.47;1.92;;;31.30;1.00;;;;;;7356945;19;20044;-71
2022/07/19 09:56:45;;;;;;;2.75;2.03;;;31.30;1.00;;;;;;7384083;19;20290;-70
2022/07/19 09:59:18;;;;;;;4.85;2.03;;;31.40;1.00;;;;;;7364432;19;20096;-70
2022/07/19 10:01:50;;;;;;;3.20;1.90;;;31.60;1.00;;;;;;7349922;19;20015;-70
2022/07/19 10:04:22;;;;;;;3.13;2.00;;;31.50;1.00;;;;;;7360625;19;20129;-70
2022/07/19 10:06:53;;;;;;;5.68;2.10;;;31.60;1.00;;;;;;7363472;19;20011;-71
2022/07/19 10:09:25;;;;;;;3.05;2.15;;;31.90;1.00;;;;;;7363013;19;20053;-70
2022/07/19 10:11:59;;;;;;;4.90;1.95;;;31.90;1.00;;;;;;7351045;19;20082;-71
2022/07/19 10:14:31;;;;;;;4.10;1.55;;;32.10;1.00;;;;;;7383565;19;20007;-70
2022/07/19 10:17:11;;;;;;;5.60;2.20;;;31.70;1.00;;;;;;7361348;19;20686;-69
2022/07/19 10:19:43;;;;;;;5.10;2.75;;;32.00;1.00;;;;;;7360528;19;20027;-69
2022/07/19 10:22:15;;;;;;;4.28;1.95;;;31.40;1.00;;;;;;7352531;19;20352;-71
2022/07/19 10:24:51;;;;;;;2.10;1.65;;;31.70;1.00;;;;;;7360757;19;20006;-69
2022/07/19 10:27:37;;;;;;;2.75;1.85;;;31.80;1.00;;;;;;7359175;19;20074;-71
2022/07/19 10:30:28;;;;;;;5.47;2.10;;;31.90;1.00;;;;;;7356320;19;20100;-72
2022/07/19 10:32:59;;;;;;;5.07;2.10;;;31.80;1.00;;;;;;7354963;19;20074;-70
2022/07/19 10:35:32;;;;;;;2.80;2.13;;;32.00;1.00;;;;;;7385352;19;20018;-70
2022/07/19 10:38:13;;;;;;;6.57;2.83;;;32.30;1.00;;;;;;7362403;19;20063;-69
2022/07/19 10:40:45;;;;;;;7.63;2.17;;;32.10;1.00;;;;;;7355192;19;20434;-70
2022/07/19 10:43:16;;;;;;;8.02;2.50;;;32.10;1.00;;;;;;7352916;19;20378;-70
2022/07/19 10:46:10;;;;;;;4.45;2.20;;;31.90;1.00;;;;;;7364522;19;20018;-71
2022/07/19 10:48:44;;;;;;;7.45;2.50;;;32.20;1.00;;;;;;7361116;19;20115;-70
2022/07/19 10:51:30;;;;;;;7.53;2.33;;;32.30;1.00;;;;;;7350591;19;20041;-70
2022/07/19 10:54:05;;;;;;;4.53;2.28;;;32.00;1.00;;;;;;7358398;19;20084;-70
2022/07/19 10:56:44;;;;;;;3.22;2.42;;;31.90;1.00;;;;;;7383577;19;20010;-71
2022/07/19 10:59:38;;;;;;;9.63;2.95;;;32.20;1.00;;;;;;7361886;19;20020;-71
2022/07/19 11:02:08;;;;;;;6.53;2.42;;;32.30;1.00;;;;;;7349324;19;20014;-71
2022/07/19 11:05:01;;;;;;;5.68;2.47;;;32.20;1.00;;;;;;7361191;19;20010;-71
2022/07/19 11:07:31;;;;;;;3.58;2.05;;;32.40;1.00;;;;;;7362596;19;20584;-72
2022/07/19 11:10:02;;;;;;;5.13;2.10;;;32.50;1.00;;;;;;7353904;19;20088;-71
2022/07/19 11:12:34;;;;;;;5.93;2.05;;;32.30;1.00;;;;;;7351282;19;20031;-70
2022/07/19 11:15:08;;;;;;;4.25;2.30;;;32.30;1.00;;;;;;7356267;19;20014;-71
2022/07/19 11:17:54;;;;;;;3.75;2.33;;;32.30;1.00;;;;;;7379655;19;20048;-70
2022/07/19 11:20:28;;;;;;;4.45;2.40;;;32.50;1.00;;;;;;7353736;19;20006;-71
2022/07/19 11:23:00;;;;;;;3.22;2.08;;;32.80;1.00;;;;;;7351688;19;20048;-72
2022/07/19 11:25:33;;;;;;;4.35;2.40;;;32.90;1.00;;;;;;7357528;19;20021;-69
2022/07/19 11:28:04;;;;;;;4.25;2.25;;;32.90;1.00;;;;;;7359092;19;20032;-71
2022/07/19 11:30:36;;;;;;;3.33;2.30;;;32.90;1.00;;;;;;7355382;19;20085;-71
2022/07/19 11:33:08;;;;;;;7.07;2.30;;;33.20;1.00;;;;;;7346883;19;20026;-70
2022/07/19 11:35:58;;;;;;;4.30;2.08;;;33.20;1.00;;;;;;7378663;19;20022;-70
2022/07/19 11:38:37;;;;;;;2.75;2.03;;;32.90;1.00;;;;;;7360597;19;20348;-70
2022/07/19 11:41:10;;;;;;;3.85;2.05;;;32.60;1.00;;;;;;7356965;19;20019;-71
2022/07/19 11:43:40;;;;;;;5.65;2.47;;;32.60;1.00;;;;;;7360966;19;20044;-70
2022/07/19 11:46:10;;;;;;;2.83;1.90;;;32.90;1.00;;;;;;7362250;19;20466;-69
2022/07/19 11:48:40;;;;;;;6.25;1.92;;;32.90;1.00;;;;;;7363107;19;20462;-70
2022/07/19 11:51:13;;;;;;;3.58;2.03;;;32.90;1.00;;;;;;7356687;19;20011;-71
2022/07/19 11:53:43;;;;;;;4.03;2.25;;;33.20;1.00;;;;;;7383719;19;20011;-69
2022/07/19 11:56:21;;;;;;;5.85;2.20;;;32.90;1.00;;;;;;7361900;19;20092;-70
2022/07/19 11:58:52;;;;;;;6.50;2.40;;;33.20;1.00;;;;;;7361822;19;20085;-71
2022/07/19 12:01:30;;;;;;;6.40;2.10;;;33.30;1.00;;;;;;7356400;19;20096;-72
2022/07/19 12:04:03;;;;;;;4.68;2.10;;;33.30;1.00;;;;;;7361239;19;20115;-71
2022/07/19 12:06:44;;;;;;;3.67;2.03;;;33.30;1.00;;;;;;7363086;19;20094;-70
2022/07/19 12:09:16;;;;;;;4.60;2.20;;;33.20;1.00;;;;;;7362719;19;20491;-71
2022/07/19 12:11:48;;;;;;;5.30;2.08;;;33.20;1.00;;;;;;7376169;19;20011;-70
2022/07/19 12:14:23;;;;;;;4.38;2.00;;;33.40;1.00;;;;;;7360123;19;20114;-70
2022/07/19 12:17:11;;;;;;;3.05;1.77;;;33.40;1.00;;;;;;7360746;19;20451;-70
2022/07/19 12:19:42;;;;;;;3.38;1.85;;;33.10;1.00;;;;;;7361698;19;20011;-69
2022/07/19 12:22:36;;;;;;;5.72;2.10;;;33.20;1.00;;;;;;7359428;19;20087;-70
2022/07/19 12:25:08;;;;;;;6.40;2.10;;;33.30;1.00;;;;;;7361578;19;20023;-70
2022/07/19 12:27:40;;;;;;;7.22;2.38;;;33.10;1.00;;;;;;7361360;19;20086;-70
2022/07/19 12:30:22;;;;;;;2.85;2.10;;;33.20;1.00;;;;;;7359288;19;20014;-70
2022/07/19 12:32:52;;;;;;;7.05;2.35;;;33.10;1.00;;;;;;7378346;19;20014;-69
2022/07/19 12:35:22;;;;;;;4.43;2.33;;;33.50;1.00;;;;;;7361616;19;20011;-69
2022/07/19 12:38:09;;;;;;;4.35;2.33;;;33.40;1.00;;;;;;7361382;19;20022;-69
2022/07/19 12:40:39;;;;;;;7.93;2.13;;;33.30;1.00;;;;;;7360882;19;20517;-70
2022/07/19 12:43:12;;;;;;;4.22;2.15;;;33.50;1.00;;;;;;7364086;19;20012;-70
2022/07/19 12:45:43;;;;;;;;;;;33.20;1.00;;;;;;7368416;19;20107;-69
2022/07/19 12:48:15;;;;;;;3.92;2.13;;;33.40;1.00;;;;;;7368176;19;19925;-70
2022/07/19 12:50:48;;;;;;;6.50;2.90;;;33.30;1.00;;;;;;7387720;19;20022;-69
2022/07/19 12:53:21;;;;;;;6.30;2.55;;;33.60;1.00;;;;;;7365062;19;20010;-69
2022/07/19 12:55:52;;;;;;;5.63;2.33;;;33.70;1.00;;;;;;7366601;19;20007;-70
2022/07/19 13:01:06;;;;;;;4.93;2.35;;;33.60;1.00;;;;;;7363930;19;20081;-70
2022/07/19 13:03:36;;;;;;;4.20;2.70;;;33.50;1.00;;;;;;7366252;19;20007;-69
2022/07/19 13:06:10;;;;;;;3.90;2.72;;;33.60;1.00;;;;;;7365636;19;20734;-68
2022/07/19 13:08:44;;;;;;;3.35;2.10;;;33.50;1.00;;;;;;7387531;19;20077;-71
2022/07/19 13:11:15;;;;;;;3.10;2.33;;;33.80;1.00;;;;;;7360343;19;20013;-70
2022/07/19 13:13:45;;;;;;;5.25;2.40;;;33.80;1.00;;;;;;7367158;19;20093;-69
2022/07/19 13:16:15;;;;;;;5.20;2.70;;;33.80;1.00;;;;;;7368167;19;20027;-70
2022/07/19 13:18:49;;;;;;;5.65;2.60;;;33.70;1.00;;;;;;7367865;19;20069;-70
2022/07/19 13:21:21;;;;;;;3.03;2.23;;;33.50;1.00;;;;;;7362279;19;20015;-70
2022/07/19 13:23:54;;;;;;;4.50;3.05;;;33.40;1.00;;;;;;7388165;19;20466;-70
2022/07/19 13:26:30;;;;;;;4.55;2.72;;;33.70;1.00;;;;;;7366569;19;20466;-70
2022/07/19 13:29:00;;;;;;;7.05;2.83;;;33.90;1.00;;;;;;7365989;19;20070;-69
2022/07/19 13:31:30;;;;;;;5.18;2.40;;;34.00;1.00;;;;;;7362532;19;20010;-69